Time;durP1;ratioP1;P1;durP2;ratioP2;P2;SDS_P1;SDS_P2;PMS_P1;PMS_P2;Temp;Humidity;BMP_temperature;BMP_pressure;BME280_temperature;BME280_humidity;BME280_pressure;Samples;Min_cycle;Max_cycle;Signal;HPM_P1;HPM_P2
2023/12/17 00:03:02;;;;;;;10.07;8.60;;;;;;;;;;10023122;28;20054;-72
2023/12/17 00:08:10;;;;;;;12.63;9.88;;;;;;;;;;10023757;28;20042;-73
2023/12/17 00:13:04;;;;;;;11.98;10.40;;;;;;;;;;10024113;28;20045;-73
2023/12/17 00:17:56;;;;;;;9.88;8.35;;;;;;;;;;10024028;28;20069;-73
2023/12/17 00:22:48;;;;;;;10.50;8.65;;;;;;;;;;10023307;28;20054;-72
2023/12/17 00:27:40;;;;;;;8.90;8.00;;;;;;;;;;10022939;28;20053;-73
2023/12/17 00:32:32;;;;;;;10.55;9.45;;;;;;;;;;10024669;28;20057;-73
2023/12/17 00:37:24;;;;;;;10.07;9.07;;;;;;;;;;10022794;28;20073;-73
2023/12/17 00:42:15;;;;;;;10.55;8.07;;;;;;;;;;10023966;28;20049;-72
2023/12/17 00:47:07;;;;;;;8.68;7.72;;;;;;;;;;10023385;28;20050;-72
2023/12/17 00:51:59;;;;;;;7.70;6.90;;;;;;;;;;10023596;28;20145;-72
2023/12/17 00:56:51;;;;;;;9.82;7.90;;;;;;;;;;9990197;28;20060;-71
2023/12/17 01:01:43;;;;;;;10.93;8.40;;;;;;;;;;10002114;28;20544;-73
2023/12/17 01:06:34;;;;;;;9.52;8.63;;;;;;;;;;9995834;28;20462;-72
2023/12/17 01:11:26;;;;;;;10.77;8.32;;;;;;;;;;9993989;28;20081;-72
2023/12/17 01:16:18;;;;;;;11.73;9.00;;;;;;;;;;9994223;28;20069;-72
2023/12/17 01:21:10;;;;;;;11.05;8.45;;;;;;;;;;9993549;28;20104;-71
2023/12/17 01:26:02;;;;;;;10.20;9.10;;;;;;;;;;9995501;28;20038;-72
2023/12/17 01:30:54;;;;;;;10.27;9.27;;;;;;;;;;9992340;28;20175;-72
2023/12/17 01:35:46;;;;;;;10.13;9.23;;;;;;;;;;9993130;28;20068;-72
2023/12/17 01:40:39;;;;;;;9.13;7.65;;;;;;;;;;9991581;28;20050;-72
2023/12/17 01:45:31;;;;;;;9.95;8.98;;;;;;;;;;10006145;28;20042;-72
2023/12/17 01:50:23;;;;;;;14.00;9.02;;;;;;;;;;9993025;28;20053;-71
2023/12/17 01:55:17;;;;;;;11.02;9.85;;;;;;;;;;10007200;28;20042;-72
2023/12/17 02:00:10;;;;;;;11.05;9.27;;;;;;;;;;10007189;28;20046;-72
2023/12/17 02:05:05;;;;;;;12.35;9.13;;;;;;;;;;10006947;28;20433;-72
2023/12/17 02:09:57;;;;;;;10.35;9.25;;;;;;;;;;9990845;28;20074;-72
2023/12/17 02:14:48;;;;;;;13.13;9.18;;;;;;;;;;10007546;28;20438;-72
2023/12/17 02:19:40;;;;;;;12.05;8.98;;;;;;;;;;9990737;28;20461;-72
2023/12/17 02:24:33;;;;;;;9.75;8.55;;;;;;;;;;9990916;28;20050;-72
2023/12/17 02:29:25;;;;;;;9.63;7.20;;;;;;;;;;9992381;28;20070;-72
2023/12/17 02:34:17;;;;;;;9.50;7.88;;;;;;;;;;9989056;28;20428;-72
2023/12/17 02:39:09;;;;;;;9.82;7.95;;;;;;;;;;9992774;28;20034;-72
2023/12/17 02:44:01;;;;;;;6.90;6.20;;;;;;;;;;9991080;28;20109;-72
2023/12/17 02:48:53;;;;;;;9.20;6.22;;;;;;;;;;9988702;28;20109;-72
2023/12/17 02:53:45;;;;;;;8.05;6.82;;;;;;;;;;9990222;28;20158;-72
2023/12/17 02:58:39;;;;;;;7.10;6.32;;;;;;;;;;9989959;28;20384;-72
2023/12/17 03:03:30;;;;;;;8.88;6.95;;;;;;;;;;9988297;28;20046;-72
2023/12/17 03:08:22;;;;;;;7.60;6.80;;;;;;;;;;9988900;28;20076;-73
2023/12/17 03:13:14;;;;;;;9.30;5.85;;;;;;;;;;10003941;28;20480;-73
2023/12/17 03:18:06;;;;;;;8.05;7.15;;;;;;;;;;9989194;28;20050;-72
2023/12/17 03:22:58;;;;;;;9.27;6.93;;;;;;;;;;9988626;28;20065;-72
2023/12/17 03:27:50;;;;;;;8.73;6.78;;;;;;;;;;9988881;28;20038;-72
2023/12/17 03:32:42;;;;;;;5.65;4.70;;;;;;;;;;9988597;28;20337;-73
2023/12/17 03:37:34;;;;;;;9.45;6.43;;;;;;;;;;9988469;28;20054;-72
2023/12/17 03:42:26;;;;;;;7.07;6.18;;;;;;;;;;9988431;28;20050;-72
2023/12/17 03:47:17;;;;;;;5.95;5.40;;;;;;;;;;9987753;28;20074;-72
2023/12/17 03:52:09;;;;;;;6.40;5.30;;;;;;;;;;9987718;28;20039;-72
2023/12/17 03:57:01;;;;;;;6.07;5.20;;;;;;;;;;10003589;28;20054;-72
2023/12/17 04:01:53;;;;;;;6.75;6.15;;;;;;;;;;9986312;28;20385;-72
2023/12/17 04:06:46;;;;;;;5.20;4.60;;;;;;;;;;9987551;28;20078;-72
2023/12/17 04:11:38;;;;;;;6.13;5.47;;;;;;;;;;9986841;28;20069;-72
2023/12/17 04:16:30;;;;;;;5.95;5.38;;;;;;;;;;9985133;28;20493;-72
2023/12/17 04:21:21;;;;;;;8.15;5.93;;;;;;;;;;9988079;28;20100;-72
2023/12/17 04:26:13;;;;;;;8.85;5.57;;;;;;;;;;9986904;28;20137;-72
2023/12/17 04:31:05;;;;;;;7.68;6.07;;;;;;;;;;10001670;28;20045;-72
2023/12/17 04:36:00;;;;;;;9.70;6.22;;;;;;;;;;9985863;28;20046;-72
2023/12/17 04:40:52;;;;;;;7.80;6.82;;;;;;;;;;9985888;28;20145;-72
2023/12/17 04:45:44;;;;;;;7.00;6.13;;;;;;;;;;9986188;28;20042;-72
2023/12/17 04:50:36;;;;;;;6.80;6.13;;;;;;;;;;9986291;28;20046;-72
2023/12/17 04:55:28;;;;;;;9.25;8.32;;;;;;;;;;9991234;28;20540;-72
2023/12/17 05:00:19;;;;;;;15.27;13.68;;;;;;;;;;9985906;28;20041;-72
2023/12/17 05:05:11;;;;;;;13.65;11.82;;;;;;;;;;9985778;28;20046;-72
2023/12/17 05:10:04;;;;;;;12.82;11.70;;;;;;;;;;9985079;28;20505;-72
2023/12/17 05:14:56;;;;;;;13.68;12.07;;;;;;;;;;9986957;28;20045;-72
2023/12/17 05:19:48;;;;;;;12.13;10.88;;;;;;;;;;9985568;28;20042;-72
2023/12/17 05:24:40;;;;;;;13.82;12.43;;;;;;;;;;9984884;28;20050;-72
2023/12/17 05:29:32;;;;;;;14.23;12.80;;;;;;;;;;9988786;28;20057;-72
2023/12/17 05:34:25;;;;;;;13.10;11.70;;;;;;;;;;9992260;28;20042;-72
2023/12/17 05:39:17;;;;;;;10.15;9.15;;;;;;;;;;9988100;28;20074;-72
2023/12/17 05:44:09;;;;;;;17.40;15.75;;;;;;;;;;9990890;28;20504;-72
2023/12/17 05:49:01;;;;;;;12.75;11.43;;;;;;;;;;9985749;28;20118;-72
2023/12/17 05:53:53;;;;;;;13.30;9.95;;;;;;;;;;9991207;28;20139;-75
2023/12/17 05:58:45;;;;;;;10.25;7.85;;;;;;;;;;9993343;28;20054;-72
2023/12/17 06:03:37;;;;;;;8.77;6.63;;;;;;;;;;9991264;28;20054;-73
2023/12/17 06:08:29;;;;;;;6.72;6.03;;;;;;;;;;9992053;28;20435;-71
2023/12/17 06:13:21;;;;;;;7.57;6.88;;;;;;;;;;9990673;28;20053;-71
2023/12/17 06:18:15;;;;;;;9.57;6.57;;;;;;;;;;9992326;28;20458;-71
2023/12/17 06:23:09;;;;;;;7.65;6.88;;;;;;;;;;9990425;28;20042;-70
2023/12/17 06:28:01;;;;;;;6.93;6.05;;;;;;;;;;10020361;28;20046;-71
2023/12/17 06:32:53;;;;;;;6.82;5.20;;;;;;;;;;10031439;28;20054;-71
2023/12/17 06:37:45;;;;;;;6.57;5.20;;;;;;;;;;10027501;28;20345;-70
2023/12/17 06:42:36;;;;;;;8.55;6.80;;;;;;;;;;10028275;28;20053;-70
2023/12/17 06:47:28;;;;;;;17.48;13.60;;;;;;;;;;10028046;28;20100;-71
2023/12/17 06:52:20;;;;;;;11.27;7.60;;;;;;;;;;10026315;28;20050;-71
2023/12/17 06:57:12;;;;;;;5.30;4.80;;;;;;;;;;10026067;28;20042;-71
2023/12/17 07:02:04;;;;;;;8.07;7.25;;;;;;;;;;10023927;28;20133;-71
2023/12/17 07:06:56;;;;;;;5.20;4.70;;;;;;;;;;10025618;28;20116;-71
2023/12/17 07:11:48;;;;;;;7.22;5.03;;;;;;;;;;10025303;28;20053;-71
2023/12/17 07:16:39;;;;;;;17.88;11.65;;;;;;;;;;10025991;28;20034;-72
2023/12/17 07:21:31;;;;;;;6.65;5.53;;;;;;;;;;10022834;28;20463;-75
2023/12/17 07:26:24;;;;;;;8.00;5.93;;;;;;;;;;10024826;28;20145;-73
2023/12/17 07:31:16;;;;;;;7.25;5.82;;;;;;;;;;10024616;28;20042;-73
2023/12/17 07:36:08;;;;;;;6.25;5.20;;;;;;;;;;10024473;28;20054;-72
2023/12/17 07:41:00;;;;;;;6.57;4.75;;;;;;;;;;10024830;28;20042;-74
2023/12/17 07:45:52;;;;;;;6.82;6.15;;;;;;;;;;10024971;28;20049;-73
2023/12/17 07:50:44;;;;;;;10.80;6.35;;;;;;;;;;10023525;28;20045;-74
2023/12/17 07:55:35;;;;;;;9.68;7.70;;;;;;;;;;10023798;28;20128;-73
2023/12/17 08:00:27;;;;;;;8.85;6.68;;;;;;;;;;10024155;28;20045;-74
2023/12/17 08:05:19;;;;;;;12.10;6.45;;;;;;;;;;10023873;28;20042;-74
2023/12/17 08:10:11;;;;;;;7.55;6.75;;;;;;;;;;10023477;28;20069;-73
2023/12/17 08:15:04;;;;;;;17.65;7.93;;;;;;;;;;10024036;28;20485;-74
2023/12/17 08:19:56;;;;;;;11.25;8.57;;;;;;;;;;10022051;28;20042;-74
2023/12/17 08:24:48;;;;;;;25.92;17.65;;;;;;;;;;10021282;28;20044;-73
2023/12/17 08:29:41;;;;;;;211.00;120.22;;;;;;;;;;10022608;28;20038;-75
2023/12/17 08:34:32;;;;;;;67.10;40.30;;;;;;;;;;10022939;28;20053;-74
2023/12/17 08:39:25;;;;;;;13.63;10.45;;;;;;;;;;10022316;28;20037;-75
2023/12/17 08:44:20;;;;;;;12.63;11.40;;;;;;;;;;10021399;28;20068;-75
2023/12/17 08:49:12;;;;;;;15.02;10.90;;;;;;;;;;10020187;28;20416;-75
2023/12/17 08:54:10;;;;;;;15.45;10.68;;;;;;;;;;10018491;28;20054;-74
2023/12/17 08:59:02;;;;;;;11.77;10.50;;;;;;;;;;10015932;28;20057;-75
2023/12/17 09:03:54;;;;;;;14.60;12.63;;;;;;;;;;10018042;28;20046;-75
2023/12/17 09:08:48;;;;;;;14.63;11.23;;;;;;;;;;10019956;28;20049;-75
2023/12/17 09:13:40;;;;;;;15.85;13.75;;;;;;;;;;10019718;28;20157;-74
2023/12/17 09:18:32;;;;;;;20.25;12.27;;;;;;;;;;10019818;28;20457;-75
2023/12/17 09:23:24;;;;;;;17.63;14.55;;;;;;;;;;10022639;28;20041;-74
2023/12/17 09:28:16;;;;;;;20.13;16.10;;;;;;;;;;10026487;28;20482;-74
2023/12/17 09:33:08;;;;;;;21.20;16.20;;;;;;;;;;10028189;28;20469;-75
2023/12/17 09:38:00;;;;;;;20.00;16.52;;;;;;;;;;10028656;28;20460;-74
2023/12/17 09:42:53;;;;;;;19.40;14.50;;;;;;;;;;10024784;28;20454;-74
2023/12/17 09:47:45;;;;;;;16.20;13.75;;;;;;;;;;10023978;28;20046;-74
2023/12/17 09:52:44;;;;;;;17.55;15.75;;;;;;;;;;10024571;28;20054;-74
2023/12/17 09:57:36;;;;;;;18.98;11.50;;;;;;;;;;10024300;28;20057;-74
2023/12/17 10:02:28;;;;;;;8.32;7.00;;;;;;;;;;10024208;28;20096;-73
2023/12/17 10:07:30;;;;;;;14.02;9.40;;;;;;;;;;10022866;28;20124;-74
2023/12/17 10:12:23;;;;;;;7.70;4.10;;;;;;;;;;10020464;28;20050;-74
2023/12/17 10:17:17;;;;;;;8.20;6.45;;;;;;;;;;10024870;28;20433;-74
2023/12/17 10:22:09;;;;;;;10.30;7.45;;;;;;;;;;10026140;28;20054;-74
2023/12/17 10:27:06;;;;;;;6.63;6.00;;;;;;;;;;10028320;28;20038;-74
2023/12/17 10:31:59;;;;;;;7.18;6.03;;;;;;;;;;10023540;28;20045;-74
2023/12/17 10:36:52;;;;;;;6.88;5.97;;;;;;;;;;10024773;28;20054;-74
2023/12/17 10:41:44;;;;;;;4.63;3.72;;;;;;;;;;10026688;28;20054;-74
2023/12/17 10:46:36;;;;;;;6.47;4.85;;;;;;;;;;10025023;28;20384;-74
2023/12/17 10:51:29;;;;;;;8.15;4.65;;;;;;;;;;10022089;28;20350;-74
2023/12/17 10:56:21;;;;;;;14.27;7.45;;;;;;;;;;10026066;28;20400;-73
2023/12/17 11:01:13;;;;;;;6.35;4.80;;;;;;;;;;10023152;28;20068;-73
2023/12/17 11:06:06;;;;;;;9.10;5.85;;;;;;;;;;10025186;28;20034;-73
2023/12/17 11:10:59;;;;;;;8.25;6.68;;;;;;;;;;10024555;28;20050;-74
2023/12/17 11:15:52;;;;;;;13.38;9.00;;;;;;;;;;10025767;28;20085;-74
2023/12/17 11:20:45;;;;;;;9.98;8.95;;;;;;;;;;10025964;28;20050;-74
2023/12/17 11:25:39;;;;;;;14.63;11.07;;;;;;;;;;10025077;28;20084;-74
2023/12/17 11:30:36;;;;;;;15.60;10.43;;;;;;;;;;10025291;28;20069;-73
2023/12/17 11:35:28;;;;;;;15.82;10.13;;;;;;;;;;10021121;28;20104;-73
2023/12/17 11:40:21;;;;;;;11.57;9.18;;;;;;;;;;10024425;28;20531;-74
2023/12/17 11:45:13;;;;;;;10.90;9.23;;;;;;;;;;10024689;28;20046;-74
2023/12/17 11:50:05;;;;;;;13.40;10.13;;;;;;;;;;10025227;28;20423;-73
2023/12/17 11:55:02;;;;;;;12.57;6.70;;;;;;;;;;10024196;28;20540;-74
2023/12/17 11:59:54;;;;;;;8.98;8.10;;;;;;;;;;10020363;28;20057;-74
2023/12/17 12:04:47;;;;;;;8.98;7.65;;;;;;;;;;10023002;28;20046;-74
2023/12/17 12:09:39;;;;;;;8.15;7.32;;;;;;;;;;10023147;28;20042;-74
2023/12/17 12:14:30;;;;;;;10.50;8.55;;;;;;;;;;10020100;28;20049;-74
2023/12/17 12:19:22;;;;;;;10.07;8.90;;;;;;;;;;10020611;28;20121;-74
2023/12/17 12:24:23;;;;;;;10.38;9.27;;;;;;;;;;10020114;28;20048;-74
2023/12/17 12:29:15;;;;;;;10.63;9.63;;;;;;;;;;10023739;28;20406;-76
2023/12/17 12:34:07;;;;;;;15.48;10.32;;;;;;;;;;10022716;28;20373;-72
2023/12/17 12:39:01;;;;;;;13.18;11.80;;;;;;;;;;10022016;28;20422;-71
2023/12/17 12:43:53;;;;;;;12.25;10.93;;;;;;;;;;10022641;28;20128;-71
2023/12/17 12:48:54;;;;;;;17.23;12.50;;;;;;;;;;10020913;28;20523;-72
2023/12/17 12:53:49;;;;;;;14.18;12.77;;;;;;;;;;10022659;28;20112;-70
2023/12/17 12:58:42;;;;;;;15.48;13.98;;;;;;;;;;10021755;28;20056;-71
2023/12/17 13:03:33;;;;;;;13.77;12.38;;;;;;;;;;10023287;28;20050;-71
2023/12/17 13:08:26;;;;;;;15.95;11.32;;;;;;;;;;10021634;28;20050;-71
2023/12/17 13:13:18;;;;;;;13.60;12.13;;;;;;;;;;10020376;28;20141;-71
2023/12/17 13:18:10;;;;;;;10.73;9.75;;;;;;;;;;10015390;28;20108;-71
2023/12/17 13:23:03;;;;;;;14.25;12.80;;;;;;;;;;10013126;28;20735;-72
2023/12/17 13:27:55;;;;;;;13.60;12.10;;;;;;;;;;10012773;28;20077;-71
2023/12/17 13:32:47;;;;;;;16.40;13.90;;;;;;;;;;10010203;28;20148;-71
2023/12/17 13:37:40;;;;;;;12.95;10.93;;;;;;;;;;10004778;28;20045;-70
2023/12/17 13:42:33;;;;;;;14.27;11.45;;;;;;;;;;10004360;28;20081;-70
2023/12/17 13:47:25;;;;;;;17.23;12.73;;;;;;;;;;10007195;28;20081;-71
2023/12/17 13:52:17;;;;;;;12.90;11.05;;;;;;;;;;10003303;28;20057;-71
2023/12/17 13:57:09;;;;;;;14.10;10.52;;;;;;;;;;10008772;28;20042;-72
2023/12/17 14:02:01;;;;;;;12.60;10.90;;;;;;;;;;10012374;28;20053;-72
2023/12/17 14:06:53;;;;;;;14.57;11.85;;;;;;;;;;10007861;28;20066;-73
2023/12/17 14:11:45;;;;;;;14.93;11.77;;;;;;;;;;10014955;28;20050;-73
2023/12/17 14:16:37;;;;;;;15.73;13.45;;;;;;;;;;10016896;28;20058;-73
2023/12/17 14:21:32;;;;;;;11.82;10.10;;;;;;;;;;10018082;28;20506;-74
2023/12/17 14:26:24;;;;;;;16.05;12.20;;;;;;;;;;10013926;28;20165;-73
2023/12/17 14:31:16;;;;;;;17.55;14.10;;;;;;;;;;10016982;28;20050;-73
2023/12/17 14:36:08;;;;;;;23.02;17.85;;;;;;;;;;10018515;28;20060;-73
2023/12/17 14:41:00;;;;;;;23.35;15.57;;;;;;;;;;10018986;28;20095;-74
2023/12/17 14:45:52;;;;;;;14.57;11.18;;;;;;;;;;10038686;28;20042;-74
2023/12/17 14:50:45;;;;;;;14.75;11.07;;;;;;;;;;10020530;28;20041;-73
2023/12/17 14:55:37;;;;;;;15.05;11.02;;;;;;;;;;10023560;28;20061;-76
2023/12/17 15:00:30;;;;;;;17.05;12.73;;;;;;;;;;10012134;28;20046;-73
2023/12/17 15:05:22;;;;;;;13.73;10.82;;;;;;;;;;10027379;28;20056;-75
2023/12/17 15:10:14;;;;;;;13.15;9.50;;;;;;;;;;10004949;28;20157;-74
2023/12/17 15:15:06;;;;;;;9.23;7.05;;;;;;;;;;10019725;28;20409;-74
2023/12/17 15:19:58;;;;;;;8.38;7.57;;;;;;;;;;10020907;28;20038;-74
2023/12/17 15:24:50;;;;;;;16.00;13.05;;;;;;;;;;10018104;28;20064;-74
2023/12/17 15:29:42;;;;;;;20.13;16.92;;;;;;;;;;10018900;28;20099;-72
2023/12/17 15:34:35;;;;;;;23.70;18.50;;;;;;;;;;10018773;28;20058;-72
2023/12/17 15:39:28;;;;;;;20.60;16.38;;;;;;;;;;10020575;28;20038;-73
2023/12/17 15:44:20;;;;;;;12.95;11.27;;;;;;;;;;10019005;28;20116;-72
2023/12/17 15:49:12;;;;;;;17.50;11.27;;;;;;;;;;10022499;28;20057;-72
2023/12/17 15:54:04;;;;;;;11.43;10.23;;;;;;;;;;10018570;28;20089;-72
2023/12/17 15:58:56;;;;;;;13.18;11.13;;;;;;;;;;10019266;28;20137;-73
2023/12/17 16:03:50;;;;;;;18.45;14.23;;;;;;;;;;10018496;28;20042;-72
2023/12/17 16:08:45;;;;;;;16.70;14.40;;;;;;;;;;10019259;28;20137;-72
2023/12/17 16:13:37;;;;;;;18.08;13.80;;;;;;;;;;10011521;28;20058;-72
2023/12/17 16:18:30;;;;;;;20.40;15.48;;;;;;;;;;10014056;28;20567;-72
2023/12/17 16:23:22;;;;;;;13.43;11.68;;;;;;;;;;10015574;28;20046;-72
2023/12/17 16:28:14;;;;;;;12.02;10.07;;;;;;;;;;10013744;28;20125;-72
2023/12/17 16:33:06;;;;;;;16.50;13.68;;;;;;;;;;10014465;28;20053;-72
2023/12/17 16:37:58;;;;;;;12.88;9.88;;;;;;;;;;10012867;28;20180;-74
2023/12/17 16:42:49;;;;;;;13.55;10.43;;;;;;;;;;10011609;28;20058;-74
2023/12/17 16:47:41;;;;;;;19.40;15.75;;;;;;;;;;10010877;28;20065;-73
2023/12/17 16:52:33;;;;;;;17.58;10.90;;;;;;;;;;10010783;28;20042;-73
2023/12/17 16:57:26;;;;;;;9.90;8.88;;;;;;;;;;10012952;28;20412;-76
2023/12/17 17:02:17;;;;;;;11.63;9.68;;;;;;;;;;10011818;28;20108;-73
2023/12/17 17:07:13;;;;;;;16.95;10.50;;;;;;;;;;10011368;28;20050;-74
2023/12/17 17:12:07;;;;;;;10.45;8.40;;;;;;;;;;10012949;28;20124;-74
2023/12/17 17:16:59;;;;;;;17.08;11.52;;;;;;;;;;10011244;28;20477;-73
2023/12/17 17:21:51;;;;;;;56.60;35.95;;;;;;;;;;10013685;28;20465;-73
2023/12/17 17:26:43;;;;;;;310.08;210.98;;;;;;;;;;10009980;28;20042;-73
2023/12/17 17:31:36;;;;;;;121.82;79.43;;;;;;;;;;10012900;28;20045;-76
2023/12/17 17:36:28;;;;;;;39.97;32.58;;;;;;;;;;10013695;28;20046;-75
2023/12/17 17:41:20;;;;;;;18.38;16.38;;;;;;;;;;10010597;28;20104;-75
2023/12/17 17:46:12;;;;;;;10.60;9.40;;;;;;;;;;10019137;28;20562;-75
2023/12/17 17:51:05;;;;;;;35.88;26.77;;;;;;;;;;10015649;28;20056;-75
2023/12/17 17:55:57;;;;;;;15.35;13.00;;;;;;;;;;10016872;28;20068;-72
2023/12/17 18:00:49;;;;;;;20.83;16.48;;;;;;;;;;10017680;28;20045;-73
2023/12/17 18:05:42;;;;;;;22.33;19.38;;;;;;;;;;10022134;28;20075;-72
2023/12/17 18:10:34;;;;;;;14.65;12.00;;;;;;;;;;10021008;28;20514;-72
2023/12/17 18:15:27;;;;;;;25.50;21.55;;;;;;;;;;10023269;28;20049;-73
2023/12/17 18:20:20;;;;;;;21.00;14.82;;;;;;;;;;10027669;28;20141;-72
2023/12/17 18:25:12;;;;;;;71.35;39.05;;;;;;;;;;10026701;28;20040;-72
2023/12/17 18:30:05;;;;;;;31.10;19.65;;;;;;;;;;10027645;28;20108;-72
2023/12/17 18:34:57;;;;;;;33.45;18.90;;;;;;;;;;10027442;28;20050;-73
2023/12/17 18:39:54;;;;;;;61.78;38.38;;;;;;;;;;10025353;28;20038;-72
2023/12/17 18:44:46;;;;;;;16.00;14.13;;;;;;;;;;10018754;28;20057;-72
2023/12/17 18:49:38;;;;;;;19.00;14.32;;;;;;;;;;10021499;28;20077;-72
2023/12/17 18:54:30;;;;;;;13.02;10.77;;;;;;;;;;10018665;28;20054;-72
2023/12/17 18:59:22;;;;;;;35.80;20.38;;;;;;;;;;10012814;28;20125;-73
2023/12/17 19:04:14;;;;;;;25.40;19.80;;;;;;;;;;10019073;28;20485;-72
2023/12/17 19:09:08;;;;;;;36.35;24.48;;;;;;;;;;10012095;28;20061;-73
2023/12/17 19:14:01;;;;;;;14.55;11.85;;;;;;;;;;10016322;28;20046;-72
2023/12/17 19:18:53;;;;;;;19.23;14.77;;;;;;;;;;10012726;28;20462;-72
2023/12/17 19:23:45;;;;;;;16.23;11.95;;;;;;;;;;10016741;28;20076;-72
2023/12/17 19:28:40;;;;;;;19.50;15.02;;;;;;;;;;10012822;28;20053;-73
2023/12/17 19:33:32;;;;;;;26.63;18.17;;;;;;;;;;10018366;28;20053;-72
2023/12/17 19:38:24;;;;;;;24.63;16.42;;;;;;;;;;10014368;28;20433;-73
2023/12/17 19:43:15;;;;;;;23.80;16.40;;;;;;;;;;10015892;28;20815;-73
2023/12/17 19:48:07;;;;;;;25.45;17.65;;;;;;;;;;10017308;28;20384;-72
2023/12/17 19:53:00;;;;;;;24.92;16.30;;;;;;;;;;10021529;28;20038;-72
2023/12/17 19:57:53;;;;;;;18.95;14.50;;;;;;;;;;10022413;28;20080;-72
2023/12/17 20:02:44;;;;;;;17.45;13.57;;;;;;;;;;10019032;28;20084;-72
2023/12/17 20:07:36;;;;;;;25.65;17.80;;;;;;;;;;10020447;28;20058;-72
2023/12/17 20:12:30;;;;;;;24.63;19.30;;;;;;;;;;10020939;28;20053;-72
2023/12/17 20:17:22;;;;;;;29.30;20.15;;;;;;;;;;10016490;28;20046;-72
2023/12/17 20:22:14;;;;;;;19.33;15.77;;;;;;;;;;10015421;28;20390;-72
2023/12/17 20:27:06;;;;;;;22.45;14.38;;;;;;;;;;10017331;28;20069;-72
2023/12/17 20:31:58;;;;;;;17.67;13.95;;;;;;;;;;10018720;28;20097;-72
2023/12/17 20:36:50;;;;;;;23.52;16.35;;;;;;;;;;10022121;28;20131;-72
2023/12/17 20:41:42;;;;;;;18.38;13.18;;;;;;;;;;10020436;28;20077;-70
2023/12/17 20:46:34;;;;;;;18.27;14.00;;;;;;;;;;10017854;28;20045;-71
2023/12/17 20:51:26;;;;;;;17.17;12.30;;;;;;;;;;10021190;28;20354;-69
2023/12/17 20:56:18;;;;;;;22.50;16.83;;;;;;;;;;10014282;28;20046;-69
2023/12/17 21:01:11;;;;;;;23.25;16.73;;;;;;;;;;10010686;28;20049;-69
2023/12/17 21:06:03;;;;;;;16.35;12.48;;;;;;;;;;10009715;28;20065;-69
2023/12/17 21:10:55;;;;;;;15.88;11.30;;;;;;;;;;10022024;28;20469;-70
2023/12/17 21:15:47;;;;;;;9.48;7.43;;;;;;;;;;10023328;28;20104;-70
2023/12/17 21:20:40;;;;;;;11.40;9.75;;;;;;;;;;10025929;28;20427;-69
2023/12/17 21:25:32;;;;;;;12.73;7.93;;;;;;;;;;10031908;28;20384;-69
2023/12/17 21:30:23;;;;;;;8.77;6.35;;;;;;;;;;10022041;28;20042;-70
2023/12/17 21:35:15;;;;;;;10.05;6.75;;;;;;;;;;10010886;28;20058;-70
2023/12/17 21:40:09;;;;;;;9.40;7.55;;;;;;;;;;10015406;28;20373;-70
2023/12/17 21:45:01;;;;;;;10.13;7.43;;;;;;;;;;10012800;28;20484;-70
2023/12/17 21:49:53;;;;;;;7.43;5.97;;;;;;;;;;10017055;28;20045;-70
2023/12/17 21:54:45;;;;;;;7.65;5.97;;;;;;;;;;10026558;28;20414;-70
2023/12/17 21:59:38;;;;;;;10.15;7.97;;;;;;;;;;10018936;28;20560;-70
2023/12/17 22:04:30;;;;;;;10.70;8.35;;;;;;;;;;9994942;28;20125;-69
2023/12/17 22:09:23;;;;;;;8.00;7.20;;;;;;;;;;9995898;28;20097;-69
2023/12/17 22:14:15;;;;;;;9.73;8.05;;;;;;;;;;9996563;28;20052;-69
2023/12/17 22:19:07;;;;;;;7.32;6.13;;;;;;;;;;9995913;28;20050;-70
2023/12/17 22:23:59;;;;;;;6.78;6.05;;;;;;;;;;9994549;28;20381;-70
2023/12/17 22:28:51;;;;;;;6.95;6.28;;;;;;;;;;9992514;28;20134;-70
2023/12/17 22:33:43;;;;;;;5.82;5.28;;;;;;;;;;10010678;28;20385;-70
2023/12/17 22:38:35;;;;;;;7.03;6.32;;;;;;;;;;10025008;28;20045;-70
2023/12/17 22:43:27;;;;;;;6.95;6.25;;;;;;;;;;10025421;28;20061;-70
2023/12/17 22:48:18;;;;;;;7.15;5.30;;;;;;;;;;10028134;28;20069;-70
2023/12/17 22:53:10;;;;;;;18.23;11.88;;;;;;;;;;10030019;28;20052;-70
2023/12/17 22:58:02;;;;;;;12.70;10.75;;;;;;;;;;10029105;28;20046;-69
2023/12/17 23:02:54;;;;;;;9.35;8.00;;;;;;;;;;10028255;28;20037;-69
2023/12/17 23:07:46;;;;;;;9.63;8.45;;;;;;;;;;10028947;28;20042;-70
2023/12/17 23:12:39;;;;;;;7.55;6.75;;;;;;;;;;10027848;28;20376;-69
2023/12/17 23:17:31;;;;;;;12.32;8.90;;;;;;;;;;10027434;28;20133;-70
2023/12/17 23:22:23;;;;;;;12.13;9.93;;;;;;;;;;10027285;28;20440;-69
2023/12/17 23:27:15;;;;;;;12.02;9.55;;;;;;;;;;10028852;28;20073;-70
2023/12/17 23:32:06;;;;;;;9.05;6.80;;;;;;;;;;10027869;28;20072;-70
2023/12/17 23:37:06;;;;;;;8.70;6.93;;;;;;;;;;10028240;28;20388;-69
2023/12/17 23:41:58;;;;;;;8.70;7.18;;;;;;;;;;10027061;28;20100;-69
2023/12/17 23:46:50;;;;;;;7.20;5.55;;;;;;;;;;10026646;28;20038;-70
2023/12/17 23:51:42;;;;;;;5.55;4.70;;;;;;;;;;10026967;28;20057;-69
2023/12/17 23:56:34;;;;;;;5.97;4.85;;;;;;;;;;10026651;28;20045;-70
